Terminal Aerodrome Forecast
Issued by NWS Midland/Odessa, TX

Home | Current Version | Previous Version | Text Only | Print | Product List | Glossary On
Versions: 1 2 3 4 5 6 7 8 9 10 11 12 13 14 15 16 17 18 19 20 21 22 23 24
150
FTUS44 KMAF 282028 AAB
TAFMAF
TAF AMD
KMAF 282028Z 2820/2918 04015G22KT P6SM FEW250
      TEMPO 2820/2824 VRB20G30KT TSRA BKN100CB
     FM290100 07009KT P6SM FEW200=

USA.gov is the U.S. government's official web portal to all federal, state and local government web resources and services.